Time;durP1;ratioP1;P1;durP2;ratioP2;P2;SDS_P1;SDS_P2;PMS_P1;PMS_P2;Temp;Humidity;BMP_temperature;BMP_pressure;BME280_temperature;BME280_humidity;BME280_pressure;Samples;Min_cycle;Max_cycle;Signal;HPM_P1;HPM_P2
2021/08/14 00:02:12;;;;;;;11.35;3.60;;;16.90;72.60;;;;;;5073082;28;20048;-89
2021/08/14 00:04:39;;;;;;;14.88;3.95;;;16.90;72.70;;;;;;5073491;28;20052;-89
2021/08/14 00:07:06;;;;;;;11.02;3.80;;;16.80;72.80;;;;;;5073490;28;20044;-89
2021/08/14 00:09:36;;;;;;;13.98;3.50;;;16.90;72.90;;;;;;5073756;28;20048;-89
2021/08/14 00:12:05;;;;;;;10.73;3.47;;;16.80;72.90;;;;;;5073227;28;20044;-90
2021/08/14 00:14:32;;;;;;;10.07;3.42;;;16.90;72.90;;;;;;5073162;28;20102;-88
2021/08/14 00:16:59;;;;;;;12.95;3.05;;;16.80;72.90;;;;;;5072578;28;20512;-89
2021/08/14 00:19:26;;;;;;;12.40;3.75;;;16.80;73.00;;;;;;5073135;28;20048;-89
2021/08/14 00:21:53;;;;;;;9.95;3.45;;;16.80;73.10;;;;;;5073121;28;20113;-84
2021/08/14 00:24:20;;;;;;;12.30;3.38;;;16.80;73.10;;;;;;5072272;28;20464;-89
2021/08/14 00:26:47;;;;;;;10.82;3.83;;;16.80;73.10;;;;;;5072757;28;20106;-89
2021/08/14 00:29:14;;;;;;;16.60;4.03;;;16.80;73.00;;;;;;5072738;28;20118;-88
2021/08/14 00:31:41;;;;;;;11.52;4.05;;;16.80;73.00;;;;;;5072377;28;20499;-89
2021/08/14 00:34:07;;;;;;;18.15;4.20;;;16.80;73.10;;;;;;5072737;28;20048;-90
2021/08/14 00:36:34;;;;;;;15.02;4.20;;;16.80;73.30;;;;;;5072991;28;20044;-88
2021/08/14 00:39:01;;;;;;;11.63;3.65;;;16.80;73.20;;;;;;5072668;28;20048;-90
2021/08/14 00:41:32;;;;;;;10.68;3.72;;;16.70;73.30;;;;;;5072465;28;20048;-89
2021/08/14 00:44:01;;;;;;;10.75;3.60;;;16.70;73.20;;;;;;5072560;28;20098;-89
2021/08/14 00:46:30;;;;;;;9.35;3.35;;;16.70;73.10;;;;;;5072378;28;20041;-89
2021/08/14 00:48:58;;;;;;;11.80;3.67;;;16.70;73.00;;;;;;5072494;28;20052;-90
2021/08/14 00:51:25;;;;;;;11.73;3.72;;;16.70;73.00;;;;;;5073090;28;20049;-91
2021/08/14 00:53:52;;;;;;;9.40;3.70;;;16.60;73.00;;;;;;5072198;28;20525;-90
2021/08/14 00:56:26;;;;;;;14.07;4.60;;;16.60;73.00;;;;;;5072320;28;20415;-89
2021/08/14 00:58:54;;;;;;;10.50;3.65;;;16.60;73.10;;;;;;5072340;28;20048;-90
2021/08/14 01:01:25;;;;;;;13.57;3.50;;;16.50;73.00;;;;;;5072203;28;20051;-91
2021/08/14 01:03:54;;;;;;;11.90;3.60;;;16.50;73.00;;;;;;5072258;28;20072;-90
2021/08/14 01:06:23;;;;;;;12.52;3.20;;;16.50;73.10;;;;;;5072862;28;20040;-91
2021/08/14 01:08:54;;;;;;;12.35;3.88;;;16.40;73.10;;;;;;5071769;28;20059;-90
2021/08/14 01:11:22;;;;;;;10.55;3.80;;;16.40;73.20;;;;;;5071984;28;20040;-90
2021/08/14 01:13:49;;;;;;;10.02;3.42;;;16.40;73.30;;;;;;5071709;28;20059;-90
2021/08/14 01:16:16;;;;;;;12.48;3.58;;;16.40;73.60;;;;;;5072445;28;20041;-90
2021/08/14 01:18:44;;;;;;;10.40;3.20;;;16.40;73.80;;;;;;5072426;28;20106;-90
2021/08/14 01:21:21;;;;;;;15.30;4.15;;;16.40;73.90;;;;;;5069423;28;20465;-90
2021/08/14 01:23:49;;;;;;;13.73;4.40;;;16.40;74.00;;;;;;5071861;28;20094;-91
2021/08/14 01:26:17;;;;;;;11.45;3.70;;;16.30;74.20;;;;;;5071945;28;20078;-90
2021/08/14 01:28:44;;;;;;;13.45;4.13;;;16.40;74.40;;;;;;5071705;28;20513;-90
2021/08/14 01:31:13;;;;;;;15.05;3.70;;;16.30;74.50;;;;;;5072137;28;20464;-89
2021/08/14 01:33:41;;;;;;;14.02;3.80;;;16.30;74.50;;;;;;5072034;28;20482;-89
2021/08/14 01:36:16;;;;;;;16.25;3.50;;;16.30;74.60;;;;;;5072237;28;20048;-90
2021/08/14 01:38:51;;;;;;;10.38;3.92;;;16.30;74.60;;;;;;5071827;28;20045;-89
2021/08/14 01:41:20;;;;;;;9.20;3.38;;;16.40;74.70;;;;;;5071834;28;20044;-90
2021/08/14 01:44:00;;;;;;;14.80;4.10;;;16.30;74.70;;;;;;5071524;28;20053;-90
2021/08/14 01:46:30;;;;;;;9.68;4.13;;;16.30;74.70;;;;;;5071870;28;20048;-91
2021/08/14 01:48:58;;;;;;;11.55;4.03;;;16.40;74.80;;;;;;5071859;28;20109;-90
2021/08/14 01:51:26;;;;;;;13.07;4.03;;;16.30;74.90;;;;;;5072271;28;20049;-90
2021/08/14 01:53:55;;;;;;;14.50;4.70;;;16.30;75.00;;;;;;5070207;28;20519;-90
2021/08/14 01:56:23;;;;;;;12.13;4.03;;;16.30;75.10;;;;;;5070559;28;20488;-88
2021/08/14 01:58:50;;;;;;;10.35;4.15;;;16.30;75.20;;;;;;5071294;28;20094;-89
2021/08/14 02:01:17;;;;;;;14.70;4.00;;;16.30;75.30;;;;;;5071722;28;20098;-92
2021/08/14 02:03:46;;;;;;;14.13;4.20;;;16.30;75.50;;;;;;5071808;28;20044;-90
2021/08/14 02:06:18;;;;;;;12.52;4.05;;;16.30;75.60;;;;;;5069992;28;20480;-91
2021/08/14 02:08:45;;;;;;;13.75;4.88;;;16.30;75.70;;;;;;5094278;28;20099;-90
2021/08/14 02:11:26;;;;;;;18.13;4.70;;;16.30;75.80;;;;;;5065371;28;20053;-91
2021/08/14 02:13:54;;;;;;;13.73;4.40;;;16.30;75.90;;;;;;5070080;28;20055;-89
2021/08/14 02:16:22;;;;;;;14.88;4.85;;;16.30;75.90;;;;;;5071698;28;20067;-90
2021/08/14 02:18:49;;;;;;;13.75;4.20;;;16.40;76.00;;;;;;5071584;28;20060;-91
2021/08/14 02:21:16;;;;;;;12.68;4.93;;;16.30;76.10;;;;;;5073764;28;20044;-89
2021/08/14 02:23:43;;;;;;;13.55;5.00;;;16.30;76.20;;;;;;5075073;28;20505;-88
2021/08/14 02:26:10;;;;;;;15.10;4.38;;;16.30;76.30;;;;;;5074968;28;20395;-90
2021/08/14 02:28:37;;;;;;;18.45;4.47;;;16.30;76.40;;;;;;5075111;28;20048;-89
2021/08/14 02:31:05;;;;;;;17.17;5.07;;;16.30;76.40;;;;;;5075218;28;20071;-88
2021/08/14 02:33:32;;;;;;;16.65;4.68;;;16.30;76.50;;;;;;5075857;28;20049;-90
2021/08/14 02:36:03;;;;;;;17.10;5.18;;;16.30;76.60;;;;;;5074909;28;20511;-91
2021/08/14 02:38:31;;;;;;;19.23;5.10;;;16.30;76.70;;;;;;5074891;28;20495;-90
2021/08/14 02:40:59;;;;;;;15.40;4.53;;;16.20;76.70;;;;;;5074595;28;20461;-90
2021/08/14 02:43:26;;;;;;;20.42;5.13;;;16.20;76.80;;;;;;5075061;28;20036;-91
2021/08/14 02:45:53;;;;;;;19.02;5.10;;;16.20;76.80;;;;;;5074914;28;20508;-84
2021/08/14 02:48:20;;;;;;;18.77;5.32;;;16.20;76.80;;;;;;5075326;28;20518;-90
2021/08/14 02:50:47;;;;;;;20.65;5.75;;;16.20;76.80;;;;;;5074711;28;20484;-91
2021/08/14 02:53:14;;;;;;;19.77;5.45;;;16.10;76.90;;;;;;5074732;28;20041;-90
2021/08/14 02:55:41;;;;;;;18.80;5.13;;;16.20;77.00;;;;;;5074316;28;20053;-90
2021/08/14 02:58:08;;;;;;;20.05;5.45;;;16.10;77.10;;;;;;5073473;28;20045;-87
2021/08/14 03:00:37;;;;;;;18.65;5.82;;;16.10;77.10;;;;;;5074843;28;20502;-88
2021/08/14 03:03:04;;;;;;;25.13;6.05;;;16.20;77.20;;;;;;5074164;28;20106;-90
2021/08/14 03:05:35;;;;;;;22.00;5.45;;;16.10;77.30;;;;;;5074584;28;20128;-90
2021/08/14 03:08:06;;;;;;;18.60;5.20;;;16.10;77.40;;;;;;5074470;28;20044;-91
2021/08/14 03:10:33;;;;;;;17.00;5.28;;;16.10;77.40;;;;;;5074099;28;20049;-91
2021/08/14 03:12:59;;;;;;;19.85;6.00;;;16.00;77.50;;;;;;5074740;28;20473;-92
2021/08/14 03:15:26;;;;;;;18.15;5.40;;;16.00;77.60;;;;;;5075099;28;20044;-92
2021/08/14 03:17:54;;;;;;;21.52;5.45;;;15.90;77.70;;;;;;5074297;28;20583;-88
2021/08/14 03:20:21;;;;;;;20.98;5.80;;;15.90;77.80;;;;;;5074238;28;20102;-91
2021/08/14 03:22:48;;;;;;;23.13;5.50;;;15.90;77.90;;;;;;5073131;28;20040;-91
2021/08/14 03:25:15;;;;;;;18.95;5.38;;;15.90;77.90;;;;;;5073909;28;20048;-90
2021/08/14 03:27:42;;;;;;;19.73;5.47;;;15.90;78.00;;;;;;5074704;28;20044;-92
2021/08/14 03:30:10;;;;;;;20.98;6.05;;;15.90;78.20;;;;;;5074690;28;20786;-91
2021/08/14 03:32:37;;;;;;;22.00;5.90;;;15.80;78.20;;;;;;5073102;28;20106;-92
2021/08/14 03:35:04;;;;;;;19.98;5.65;;;15.80;78.40;;;;;;5074045;28;20099;-90
2021/08/14 03:37:30;;;;;;;14.02;5.20;;;15.80;78.40;;;;;;5074285;28;20040;-90
2021/08/14 03:39:57;;;;;;;16.63;5.57;;;15.80;78.50;;;;;;5073828;28;20568;-90
2021/08/14 03:42:24;;;;;;;25.35;5.75;;;15.70;78.60;;;;;;5074507;28;20044;-90
2021/08/14 03:44:53;;;;;;;21.67;6.22;;;15.70;78.60;;;;;;5073797;28;20464;-92
2021/08/14 03:47:20;;;;;;;23.60;6.20;;;15.60;78.70;;;;;;5074010;28;20040;-91
2021/08/14 03:49:46;;;;;;;18.67;5.65;;;15.70;78.70;;;;;;5073740;28;20106;-90
2021/08/14 03:52:13;;;;;;;16.40;5.93;;;15.60;78.70;;;;;;5073965;28;20101;-90
2021/08/14 03:54:42;;;;;;;14.90;5.88;;;15.60;78.70;;;;;;5073626;28;20098;-90
2021/08/14 03:57:09;;;;;;;25.85;5.22;;;15.60;78.70;;;;;;5074266;28;20049;-91
2021/08/14 03:59:36;;;;;;;21.15;7.07;;;15.60;78.80;;;;;;5072729;28;20110;-91
2021/08/14 04:02:03;;;;;;;24.88;6.32;;;15.50;78.80;;;;;;5073836;28;20044;-89
2021/08/14 04:04:30;;;;;;;22.15;6.88;;;15.50;78.90;;;;;;5073918;28;20048;-90
2021/08/14 04:06:57;;;;;;;19.90;5.82;;;15.50;78.90;;;;;;5073557;28;20473;-91
2021/08/14 04:09:24;;;;;;;28.13;6.13;;;15.40;79.00;;;;;;5073861;28;20059;-91
2021/08/14 04:11:51;;;;;;;17.63;5.43;;;15.40;79.00;;;;;;5073629;28;20399;-89
2021/08/14 04:14:18;;;;;;;34.45;6.45;;;15.40;79.00;;;;;;5073381;28;20040;-91
2021/08/14 04:16:45;;;;;;;20.38;6.38;;;15.40;79.00;;;;;;5073555;28;20056;-91
2021/08/14 04:19:11;;;;;;;17.80;6.25;;;15.40;79.00;;;;;;5073204;28;20071;-90
2021/08/14 04:21:38;;;;;;;14.75;5.40;;;15.30;79.00;;;;;;5073904;28;20098;-90
2021/08/14 04:24:05;;;;;;;13.32;5.40;;;15.30;79.10;;;;;;5072325;28;20549;-90
2021/08/14 04:26:32;;;;;;;18.92;5.60;;;15.30;79.10;;;;;;5072874;28;20087;-89
2021/08/14 04:28:59;;;;;;;19.05;5.63;;;15.30;79.10;;;;;;5071215;28;20094;-87
2021/08/14 04:31:26;;;;;;;17.27;5.65;;;15.30;79.10;;;;;;5065102;28;20067;-88
2021/08/14 04:33:53;;;;;;;22.55;6.88;;;15.30;79.10;;;;;;5072237;28;20084;-88
2021/08/14 04:36:19;;;;;;;16.40;6.07;;;15.20;79.20;;;;;;5073056;28;20056;-88
2021/08/14 04:38:48;;;;;;;25.63;5.88;;;15.20;79.20;;;;;;5071460;28;20044;-88
2021/08/14 04:41:15;;;;;;;21.83;6.30;;;15.10;79.20;;;;;;5072469;28;20063;-89
2021/08/14 04:43:41;;;;;;;31.90;5.97;;;15.20;79.20;;;;;;5072397;28;20098;-91
2021/08/14 04:46:08;;;;;;;20.23;6.18;;;15.20;79.20;;;;;;5071974;28;20572;-90
2021/08/14 04:48:35;;;;;;;19.88;6.18;;;15.10;79.20;;;;;;5072700;28;20123;-89
2021/08/14 04:51:02;;;;;;;27.63;6.50;;;15.10;79.20;;;;;;5071888;28;20053;-85
2021/08/14 04:53:29;;;;;;;21.63;6.75;;;15.10;79.20;;;;;;5071988;28;20048;-87
2021/08/14 04:55:56;;;;;;;21.15;6.68;;;15.10;79.20;;;;;;5071753;28;20588;-87
2021/08/14 04:58:23;;;;;;;18.73;6.28;;;15.00;79.20;;;;;;5072346;28;20093;-85
2021/08/14 05:00:50;;;;;;;20.67;6.22;;;14.90;79.30;;;;;;5071676;28;20465;-84
2021/08/14 05:03:21;;;;;;;17.80;6.50;;;14.90;79.40;;;;;;5072556;28;20044;-86
2021/08/14 05:05:48;;;;;;;22.33;6.80;;;14.90;79.50;;;;;;5071419;28;20048;-88
2021/08/14 05:08:15;;;;;;;18.52;6.35;;;14.90;79.60;;;;;;5071588;28;20096;-87
2021/08/14 05:10:42;;;;;;;21.80;6.80;;;14.90;79.60;;;;;;5071457;28;20052;-85
2021/08/14 05:13:09;;;;;;;14.85;6.03;;;14.90;79.70;;;;;;5072037;28;20047;-85
2021/08/14 05:15:36;;;;;;;21.15;6.82;;;14.90;79.80;;;;;;5071594;28;20110;-84
2021/08/14 05:18:03;;;;;;;17.58;6.05;;;14.90;79.90;;;;;;5071801;28;20083;-85
2021/08/14 05:20:30;;;;;;;19.83;6.68;;;14.90;79.90;;;;;;5069331;28;20078;-86
2021/08/14 05:22:57;;;;;;;24.23;6.50;;;14.90;79.90;;;;;;5073041;28;20044;-88
2021/08/14 05:25:26;;;;;;;18.83;6.20;;;14.90;80.00;;;;;;5072218;28;22903;-87
2021/08/14 05:27:52;;;;;;;24.45;6.85;;;14.90;80.10;;;;;;5070273;28;20041;-88
2021/08/14 05:30:19;;;;;;;16.00;6.10;;;14.90;80.20;;;;;;5074875;28;20053;-87
2021/08/14 05:32:46;;;;;;;18.95;6.35;;;14.90;80.30;;;;;;5073778;28;20044;-88
2021/08/14 05:35:14;;;;;;;26.27;7.20;;;14.90;80.30;;;;;;5071594;28;20048;-84
2021/08/14 05:37:41;;;;;;;18.00;6.32;;;14.90;80.50;;;;;;5073293;28;20379;-86
2021/08/14 05:40:08;;;;;;;14.77;5.57;;;14.90;80.50;;;;;;5068044;28;20057;-87
2021/08/14 05:42:35;;;;;;;22.10;6.55;;;14.90;80.60;;;;;;5074760;28;20052;-88
2021/08/14 05:45:02;;;;;;;19.95;6.97;;;14.90;80.70;;;;;;5071788;28;20056;-90
2021/08/14 05:47:29;;;;;;;18.85;5.80;;;15.00;80.90;;;;;;5071795;28;20106;-86
2021/08/14 05:49:56;;;;;;;14.93;6.10;;;15.00;81.00;;;;;;5071551;28;20118;-89
2021/08/14 05:52:23;;;;;;;20.80;6.32;;;15.00;81.10;;;;;;5070120;28;20041;-89
2021/08/14 05:54:50;;;;;;;16.70;6.35;;;15.00;81.10;;;;;;5070827;28;20524;-89
2021/08/14 05:57:17;;;;;;;21.30;6.40;;;15.10;81.20;;;;;;5078316;28;20083;-88
2021/08/14 05:59:44;;;;;;;15.88;5.88;;;15.10;81.20;;;;;;5075709;28;20106;-87
2021/08/14 06:02:11;;;;;;;16.73;6.22;;;15.20;81.30;;;;;;5076093;28;20040;-89
2021/08/14 06:04:38;;;;;;;13.07;5.60;;;15.20;81.30;;;;;;5075579;28;20052;-89
2021/08/14 06:07:05;;;;;;;12.77;5.38;;;15.20;81.30;;;;;;5071616;28;20044;-89
2021/08/14 06:09:32;;;;;;;24.92;6.43;;;15.30;81.30;;;;;;5079863;28;20056;-89
2021/08/14 06:11:59;;;;;;;22.48;6.28;;;15.30;81.30;;;;;;5077741;28;20098;-89
2021/08/14 06:14:26;;;;;;;22.67;6.28;;;15.40;81.30;;;;;;5077186;28;20459;-87
2021/08/14 06:16:53;;;;;;;19.77;6.18;;;15.40;81.40;;;;;;5075758;28;20497;-87
2021/08/14 06:19:20;;;;;;;17.95;5.93;;;15.40;81.40;;;;;;5073037;28;20068;-89
2021/08/14 06:21:47;;;;;;;20.60;5.85;;;15.50;81.40;;;;;;5075108;28;20103;-87
2021/08/14 06:24:14;;;;;;;24.48;6.22;;;15.50;81.40;;;;;;5091428;28;20052;-91
2021/08/14 06:26:41;;;;;;;24.98;7.45;;;15.60;81.40;;;;;;5076759;28;20506;-88
2021/08/14 06:29:08;;;;;;;22.75;6.40;;;15.70;81.40;;;;;;5077098;28;20036;-88
2021/08/14 06:31:35;;;;;;;23.95;6.32;;;15.70;81.40;;;;;;5075315;28;20044;-89
2021/08/14 06:34:02;;;;;;;29.38;6.90;;;15.70;81.50;;;;;;5054977;28;20044;-89
2021/08/14 06:36:29;;;;;;;13.85;5.78;;;15.70;81.50;;;;;;5079153;28;20044;-88
2021/08/14 06:38:56;;;;;;;26.95;5.90;;;15.80;81.50;;;;;;5075297;28;20109;-88
2021/08/14 06:41:23;;;;;;;17.70;5.93;;;15.80;81.50;;;;;;5075393;28;20055;-89
2021/08/14 06:43:50;;;;;;;20.35;5.72;;;15.90;81.40;;;;;;5074955;28;20048;-89
2021/08/14 06:46:19;;;;;;;18.10;5.10;;;15.90;81.40;;;;;;5072985;28;20458;-88
2021/08/14 06:48:46;;;;;;;17.85;5.18;;;15.90;81.40;;;;;;5075050;28;20084;-88
2021/08/14 06:51:16;;;;;;;24.17;5.57;;;15.90;81.40;;;;;;5076543;28;20048;-88
2021/08/14 06:53:43;;;;;;;20.48;5.53;;;16.00;81.40;;;;;;5075488;28;20048;-92
2021/08/14 06:56:10;;;;;;;20.20;5.63;;;16.00;81.40;;;;;;5071494;28;20051;-90
2021/08/14 06:58:37;;;;;;;15.00;5.07;;;16.10;81.40;;;;;;5086490;28;20040;-90
2021/08/14 07:01:04;;;;;;;23.10;5.30;;;16.10;81.30;;;;;;5072769;28;20044;-90
2021/08/14 07:03:32;;;;;;;21.83;5.25;;;16.20;81.30;;;;;;5086838;28;20777;-91
2021/08/14 07:05:59;;;;;;;18.08;5.38;;;16.30;81.20;;;;;;5074234;28;20052;-88
2021/08/14 07:08:26;;;;;;;19.08;5.60;;;16.30;81.20;;;;;;5076602;28;20040;-88
2021/08/14 07:10:53;;;;;;;14.77;4.50;;;16.40;81.20;;;;;;5074936;28;20056;-92
2021/08/14 07:13:20;;;;;;;24.88;5.40;;;16.50;81.10;;;;;;5073314;28;20045;-85
2021/08/14 07:15:47;;;;;;;24.42;5.47;;;16.50;81.10;;;;;;5074508;28;20105;-91
2021/08/14 07:18:14;;;;;;;23.08;6.05;;;16.60;81.10;;;;;;5076626;28;20056;-92
2021/08/14 07:20:40;;;;;;;27.05;5.35;;;16.70;81.00;;;;;;5074528;28;20113;-90
2021/08/14 07:23:07;;;;;;;21.38;5.35;;;16.80;80.90;;;;;;5078672;28;20036;-90
2021/08/14 07:25:34;;;;;;;24.60;5.45;;;16.90;81.00;;;;;;5085732;28;20456;-90
2021/08/14 07:28:02;;;;;;;15.57;4.97;;;16.90;80.80;;;;;;5055451;28;20044;-91
2021/08/14 07:30:29;;;;;;;13.00;4.68;;;17.00;80.70;;;;;;5079009;28;20506;-91
2021/08/14 07:32:56;;;;;;;23.00;4.80;;;17.10;80.50;;;;;;5075639;28;20422;-92
2021/08/14 07:35:23;;;;;;;17.13;5.25;;;17.20;80.30;;;;;;5076045;28;20040;-93
2021/08/14 07:37:51;;;;;;;16.02;5.03;;;17.20;80.10;;;;;;5077033;28;20101;-90
2021/08/14 07:40:26;;;;;;;16.45;5.18;;;17.20;79.90;;;;;;5074113;28;20445;-92
2021/08/14 07:42:53;;;;;;;13.15;4.53;;;17.30;79.90;;;;;;5089095;28;20043;-90
2021/08/14 07:45:22;;;;;;;18.58;4.93;;;17.40;79.70;;;;;;5093208;28;20525;-91
2021/08/14 07:47:50;;;;;;;18.08;5.13;;;17.40;79.60;;;;;;5075060;28;20060;-88
2021/08/14 07:50:20;;;;;;;18.65;4.85;;;17.50;79.60;;;;;;5071097;28;20044;-88
2021/08/14 07:52:48;;;;;;;17.80;5.25;;;17.60;79.40;;;;;;5086785;28;20060;-92
2021/08/14 07:55:15;;;;;;;21.95;4.63;;;17.70;79.10;;;;;;5070708;28;20514;-90
2021/08/14 07:57:43;;;;;;;23.75;5.30;;;17.80;79.00;;;;;;5107352;27;20045;-92
2021/08/14 08:00:15;;;;;;;16.10;4.93;;;17.90;78.80;;;;;;5086389;28;20167;-89
2021/08/14 08:02:43;;;;;;;17.23;4.97;;;18.00;78.40;;;;;;5083234;28;20048;-90
2021/08/14 08:05:12;;;;;;;15.07;4.97;;;18.20;78.20;;;;;;5079600;28;20044;-90
2021/08/14 08:07:43;;;;;;;20.33;4.20;;;18.30;77.90;;;;;;5074933;28;20048;-91
2021/08/14 08:10:16;;;;;;;16.35;4.90;;;18.40;77.50;;;;;;5072560;28;20090;-90
2021/08/14 08:12:44;;;;;;;18.90;4.83;;;18.50;76.50;;;;;;5074587;28;20049;-91
2021/08/14 08:15:12;;;;;;;18.85;4.88;;;18.60;76.30;;;;;;5075607;28;20051;-87
2021/08/14 08:17:40;;;;;;;14.43;3.97;;;18.70;76.10;;;;;;5073724;28;20040;-90
2021/08/14 08:20:10;;;;;;;16.38;4.60;;;18.90;75.50;;;;;;5073009;28;20049;-88
2021/08/14 08:22:37;;;;;;;13.20;4.65;;;18.90;74.90;;;;;;5075469;28;20048;-90
2021/08/14 08:25:05;;;;;;;18.27;4.75;;;19.00;74.60;;;;;;5085002;28;20040;-90
2021/08/14 08:27:32;;;;;;;18.50;5.10;;;19.10;74.40;;;;;;5077112;28;20567;-88
2021/08/14 08:29:59;;;;;;;17.67;4.43;;;19.30;74.10;;;;;;5075030;28;20564;-89
2021/08/14 08:32:25;;;;;;;11.95;4.20;;;19.40;73.90;;;;;;5073408;28;20044;-89
2021/08/14 08:34:52;;;;;;;17.73;5.15;;;19.40;73.50;;;;;;5072960;28;20500;-89
2021/08/14 08:37:19;;;;;;;14.88;4.20;;;19.60;72.90;;;;;;5071303;28;20045;-89
2021/08/14 08:39:46;;;;;;;14.30;4.28;;;19.70;72.70;;;;;;5073611;28;20055;-88
2021/08/14 08:42:13;;;;;;;11.68;4.25;;;19.90;72.70;;;;;;5074474;28;20052;-90
2021/08/14 08:44:40;;;;;;;13.30;4.03;;;19.90;72.50;;;;;;5074285;28;20055;-90
2021/08/14 08:47:08;;;;;;;13.63;4.00;;;20.10;72.00;;;;;;5072985;28;20045;-89
2021/08/14 08:49:52;;;;;;;10.05;3.60;;;20.10;71.40;;;;;;5073008;28;20047;-86
2021/08/14 08:52:20;;;;;;;9.45;3.80;;;20.20;70.70;;;;;;5056930;28;20099;-91
2021/08/14 08:54:49;;;;;;;12.82;3.85;;;20.30;69.80;;;;;;5073056;28;20037;-91
2021/08/14 08:57:16;;;;;;;10.73;3.60;;;20.40;69.80;;;;;;5073641;28;20528;-92
2021/08/14 08:59:47;;;;;;;15.48;4.20;;;20.40;69.90;;;;;;5072638;28;20053;-89
2021/08/14 09:02:32;;;;;;;13.70;4.88;;;20.50;70.10;;;;;;5072975;28;20506;-88
2021/08/14 09:05:20;;;;;;;10.77;3.92;;;20.60;70.10;;;;;;5072388;28;20051;-88
2021/08/14 09:07:48;;;;;;;17.23;4.43;;;20.70;70.00;;;;;;5072822;28;20055;-87
2021/08/14 09:10:22;;;;;;;10.98;3.67;;;20.90;69.50;;;;;;5071683;28;20564;-88
2021/08/14 09:12:50;;;;;;;13.82;3.88;;;20.90;69.60;;;;;;5067374;28;20144;-87
2021/08/14 09:15:44;;;;;;;12.80;3.92;;;21.10;69.50;;;;;;5075278;28;20059;-89
2021/08/14 09:18:17;;;;;;;12.93;4.00;;;21.20;69.30;;;;;;5074752;28;20139;-89
2021/08/14 09:20:44;;;;;;;14.98;4.13;;;21.40;69.00;;;;;;5072198;28;20044;-89
2021/08/14 09:23:13;;;;;;;12.10;4.45;;;21.40;67.60;;;;;;5077110;28;20059;-89
2021/08/14 09:25:51;;;;;;;13.15;4.90;;;21.60;67.30;;;;;;5077408;28;20052;-91
2021/08/14 09:28:29;;;;;;;13.40;3.80;;;21.70;67.00;;;;;;5069251;28;20041;-90
2021/08/14 09:30:58;;;;;;;10.57;4.10;;;21.90;66.70;;;;;;5086505;28;20044;-90
2021/08/14 09:33:27;;;;;;;9.77;3.72;;;22.00;66.50;;;;;;5076911;28;20102;-90
2021/08/14 09:35:58;;;;;;;12.98;4.63;;;22.20;66.40;;;;;;5072468;28;20121;-91
2021/08/14 09:38:45;;;;;;;12.38;4.68;;;22.30;65.20;;;;;;5081699;28;20128;-91
2021/08/14 09:41:14;;;;;;;11.63;4.20;;;22.50;65.10;;;;;;5077766;28;20040;-90
2021/08/14 09:43:42;;;;;;;13.75;4.18;;;22.60;65.10;;;;;;5074454;28;20051;-90
2021/08/14 09:46:10;;;;;;;11.35;3.97;;;22.80;64.90;;;;;;5070503;28;20560;-92
2021/08/14 09:48:38;;;;;;;13.40;4.15;;;22.90;64.00;;;;;;5090564;28;20048;-91
2021/08/14 09:51:24;;;;;;;10.77;4.03;;;23.00;63.70;;;;;;5075460;28;20052;-89
2021/08/14 09:53:54;;;;;;;13.63;4.28;;;23.20;63.80;;;;;;5075286;28;20052;-89
2021/08/14 09:56:27;;;;;;;9.63;4.28;;;23.30;63.40;;;;;;5073732;28;20044;-93
2021/08/14 09:58:54;;;;;;;10.65;4.40;;;23.50;62.40;;;;;;5074394;28;20733;-91
2021/08/14 10:01:23;;;;;;;12.15;4.43;;;23.60;62.50;;;;;;5072328;28;20449;-95
2021/08/14 10:03:51;;;;;;;13.85;4.90;;;23.80;62.80;;;;;;5072005;28;20076;-91
2021/08/14 10:06:19;;;;;;;11.50;4.32;;;23.90;62.00;;;;;;5077596;28;20113;-93
2021/08/14 10:08:46;;;;;;;12.77;5.03;;;23.90;61.90;;;;;;5074741;28;20122;-94
2021/08/14 10:11:14;;;;;;;12.35;5.00;;;24.10;61.60;;;;;;5074555;28;20118;-93
2021/08/14 10:13:42;;;;;;;10.25;4.78;;;24.30;61.50;;;;;;5072987;28;20065;-91
2021/08/14 10:16:10;;;;;;;11.18;4.85;;;24.40;61.50;;;;;;5069436;28;20135;-93
2021/08/14 10:18:41;;;;;;;13.00;5.32;;;24.50;60.60;;;;;;5074856;28;20083;-94
2021/08/14 10:21:09;;;;;;;14.23;4.80;;;24.60;59.80;;;;;;5089880;28;20045;-92
2021/08/14 10:23:37;;;;;;;10.27;4.18;;;24.60;59.70;;;;;;5072070;28;20057;-88
2021/08/14 10:26:08;;;;;;;15.35;4.35;;;24.70;59.80;;;;;;5076129;28;20109;-93
2021/08/14 10:28:52;;;;;;;12.52;5.40;;;24.80;59.90;;;;;;5087264;28;20090;-94
2021/08/14 10:31:34;;;;;;;10.65;4.38;;;24.90;59.90;;;;;;5057401;28;20048;-94
2021/08/14 10:34:13;;;;;;;15.43;4.85;;;25.10;59.90;;;;;;5087941;28;20060;-92
2021/08/14 10:36:46;;;;;;;12.27;4.00;;;25.20;59.60;;;;;;5104566;28;20502;-92
2021/08/14 10:39:18;;;;;;;14.40;4.40;;;25.30;58.60;;;;;;5080121;28;20055;-93
2021/08/14 10:41:47;;;;;;;12.80;4.57;;;25.30;58.10;;;;;;5076210;28;20056;-91
2021/08/14 10:44:14;;;;;;;10.30;4.05;;;25.40;57.80;;;;;;5082984;28;20040;-94
2021/08/14 10:46:50;;;;;;;10.75;4.18;;;25.50;57.60;;;;;;5069887;28;20057;-93
2021/08/14 10:49:32;;;;;;;8.90;3.85;;;25.60;56.40;;;;;;5075349;28;20052;-93
2021/08/14 10:52:02;;;;;;;14.75;3.80;;;25.60;56.80;;;;;;5072158;28;20049;-93
2021/08/14 10:54:33;;;;;;;10.05;3.75;;;25.80;57.30;;;;;;5055621;28;20041;-96
2021/08/14 10:57:05;;;;;;;9.98;4.05;;;25.90;57.70;;;;;;5077473;28;20052;-95
2021/08/14 10:59:38;;;;;;;15.02;4.38;;;26.00;57.40;;;;;;5081891;28;20109;-94
2021/08/14 11:02:10;;;;;;;11.85;3.78;;;26.20;57.50;;;;;;5092204;28;20093;-96
2021/08/14 11:04:45;;;;;;;9.27;3.85;;;26.20;56.20;;;;;;5094136;28;20080;-94
2021/08/14 11:07:21;;;;;;;12.40;4.00;;;26.30;56.60;;;;;;5077838;28;20037;-94
2021/08/14 11:10:11;;;;;;;10.25;4.00;;;26.30;56.40;;;;;;5077807;28;20048;-96
2021/08/14 11:12:50;;;;;;;11.80;4.07;;;26.50;56.40;;;;;;5091900;28;20093;-93
2021/08/14 11:15:29;;;;;;;10.35;4.38;;;26.70;56.20;;;;;;5084380;28;20052;-92
2021/08/14 11:17:59;;;;;;;13.27;4.35;;;26.80;56.20;;;;;;5083246;28;20057;-94
2021/08/14 11:20:26;;;;;;;10.48;4.30;;;26.90;56.30;;;;;;5080374;28;20043;-94
2021/08/14 11:22:58;;;;;;;9.48;3.65;;;26.90;55.60;;;;;;5076505;28;20090;-95
2021/08/14 11:25:40;;;;;;;14.82;4.30;;;27.10;55.40;;;;;;5083291;28;20060;-96
2021/08/14 11:28:08;;;;;;;8.82;4.07;;;27.10;55.60;;;;;;5059230;28;20465;-93
2021/08/14 11:30:35;;;;;;;10.82;4.22;;;27.20;55.30;;;;;;5082434;28;20052;-89
2021/08/14 11:33:08;;;;;;;7.38;3.60;;;27.30;55.10;;;;;;5074848;28;20052;-95
2021/08/14 11:35:37;;;;;;;10.13;4.10;;;27.30;54.50;;;;;;5075208;28;20114;-95
2021/08/14 11:38:09;;;;;;;9.15;3.75;;;27.40;54.20;;;;;;5080275;28;20483;-94
2021/08/14 11:40:40;;;;;;;13.02;4.25;;;27.60;54.60;;;;;;5076702;28;20131;-96
2021/08/14 11:43:08;;;;;;;7.55;3.20;;;27.60;54.70;;;;;;5072055;28;20619;-94
2021/08/14 11:45:37;;;;;;;9.68;4.00;;;27.80;54.70;;;;;;5055251;28;20049;-91
2021/08/14 11:48:12;;;;;;;7.50;3.35;;;27.90;54.40;;;;;;5093601;28;20497;-94
2021/08/14 11:50:48;;;;;;;10.07;3.67;;;27.90;54.10;;;;;;5073128;28;20045;-95
2021/08/14 11:53:26;;;;;;;7.65;3.40;;;28.00;53.90;;;;;;5074705;28;20071;-93
2021/08/14 11:56:10;;;;;;;10.73;3.60;;;28.10;53.90;;;;;;5067440;28;20048;-95
2021/08/14 11:58:38;;;;;;;9.73;3.80;;;28.10;54.20;;;;;;5063318;28;20071;-96
2021/08/14 12:01:05;;;;;;;11.30;3.90;;;28.20;53.10;;;;;;5062648;28;20544;-94
2021/08/14 12:03:33;;;;;;;9.07;3.92;;;28.30;52.90;;;;;;5081771;28;20469;-96
2021/08/14 12:06:22;;;;;;;9.63;3.88;;;28.40;53.10;;;;;;5084516;28;20044;-95
2021/08/14 12:08:59;;;;;;;9.77;4.10;;;28.40;53.10;;;;;;5074367;28;20052;-95
2021/08/14 12:11:28;;;;;;;11.52;3.67;;;28.50;52.80;;;;;;5064003;28;20051;-96
2021/08/14 12:14:21;;;;;;;12.00;3.80;;;28.50;52.80;;;;;;5078834;28;20118;-95
2021/08/14 12:16:50;;;;;;;;;;;28.70;52.80;;;;;;5081352;28;20102;-94
2021/08/14 12:19:21;;;;;;;11.93;3.35;;;28.90;52.40;;;;;;5089501;28;19920;-95
2021/08/14 12:22:04;;;;;;;10.80;3.78;;;29.00;52.30;;;;;;5058900;28;20065;-94
2021/08/14 12:24:32;;;;;;;9.35;3.58;;;29.10;52.50;;;;;;5053667;28;20060;-92
2021/08/14 12:26:59;;;;;;;8.30;3.65;;;29.10;51.90;;;;;;5076079;28;20044;-96
2021/08/14 12:29:25;;;;;;;9.95;4.03;;;29.20;51.60;;;;;;5085709;28;20116;-94
2021/08/14 12:31:55;;;;;;;11.10;4.28;;;29.30;51.70;;;;;;5072861;28;20446;-94
2021/08/14 12:34:28;;;;;;;10.45;2.95;;;29.30;51.30;;;;;;5060345;28;20110;-93
2021/08/14 12:37:14;;;;;;;8.35;3.50;;;29.30;51.60;;;;;;5084567;28;20036;-96
2021/08/14 12:39:56;;;;;;;8.52;3.38;;;29.40;51.30;;;;;;5063504;28;20053;-94
2021/08/14 12:42:28;;;;;;;8.65;3.72;;;29.30;50.60;;;;;;5069763;28;20089;-95
2021/08/14 12:45:09;;;;;;;7.38;3.17;;;29.30;51.30;;;;;;5097111;28;20071;-96
2021/08/14 12:47:36;;;;;;;10.95;3.58;;;29.30;50.80;;;;;;5085258;28;20113;-96
2021/08/14 12:50:26;;;;;;;8.20;3.35;;;29.40;51.20;;;;;;5080582;28;20059;-95